Time;durP1;ratioP1;P1;durP2;ratioP2;P2;SDS_P1;SDS_P2;PMS_P1;PMS_P2;Temp;Humidity;BMP_temperature;BMP_pressure;BME280_temperature;BME280_humidity;BME280_pressure;Samples;Min_cycle;Max_cycle;Signal;HPM_P1;HPM_P2
2022/05/26 00:02:16;;;;;;;4.83;2.73;;;;;;;17.23;45.40;100342.98;126091;1102;102327;-79
2022/05/26 00:04:48;;;;;;;5.60;2.83;;;;;;;17.19;45.66;100333.22;126037;1102;101944;-78
2022/05/26 00:07:17;;;;;;;4.20;2.33;;;;;;;17.17;45.81;100328.77;125938;1102;101834;-78
2022/05/26 00:10:23;;;;;;;4.13;2.47;;;;;;;17.15;45.88;100326.11;125865;1101;103110;-78
2022/05/26 00:12:59;;;;;;;5.33;2.80;;;;;;;17.08;46.10;100316.38;125969;1102;109422;-78
2022/05/26 00:15:30;;;;;;;5.90;2.73;;;;;;;17.07;46.83;100322.54;125922;1102;102371;-78
2022/05/26 00:18:01;;;;;;;7.03;3.00;;;;;;;17.05;46.75;100321.66;125803;1102;102534;-78
2022/05/26 00:20:36;;;;;;;4.40;2.73;;;;;;;17.04;46.63;100326.05;125881;1102;102363;-77
2022/05/26 00:23:34;;;;;;;4.73;2.67;;;;;;;17.07;46.93;100330.48;125962;1102;102276;-78
2022/05/26 00:26:14;;;;;;;3.97;2.60;;;;;;;17.10;47.07;100329.63;126013;1105;102124;-77
2022/05/26 00:28:43;;;;;;;4.00;2.70;;;;;;;17.09;46.93;100333.16;125940;1103;104254;-79
2022/05/26 00:31:29;;;;;;;5.03;2.97;;;;;;;17.07;46.89;100338.45;125961;1105;101916;-78
2022/05/26 00:34:27;;;;;;;4.13;2.87;;;;;;;17.04;47.18;100338.42;125919;1106;102250;-77
2022/05/26 00:37:11;;;;;;;6.33;3.00;;;;;;;17.03;47.65;100333.98;125907;1105;102255;-78
2022/05/26 00:39:53;;;;;;;4.77;2.67;;;;;;;17.03;47.58;100339.29;125962;1105;102282;-78
2022/05/26 00:42:29;;;;;;;5.47;2.87;;;;;;;17.03;47.43;100336.64;125980;1105;101861;-78
2022/05/26 00:47:57;;;;;;;4.10;2.90;;;;;;;17.01;47.94;100327.80;125922;1105;101991;-77
2022/05/26 00:50:33;;;;;;;4.00;2.87;;;;;;;17.00;48.07;100318.97;125777;1105;103016;-77
2022/05/26 00:53:13;;;;;;;5.43;2.80;;;;;;;16.97;48.33;100324.25;125871;1105;104127;-77
2022/05/26 00:56:00;;;;;;;7.90;3.03;;;;;;;16.95;47.85;100328.63;125905;1105;101843;-78
2022/05/26 00:58:44;;;;;;;6.60;2.90;;;;;;;16.93;48.68;100330.40;125998;1106;102415;-78
2022/05/26 01:01:30;;;;;;;7.73;3.03;;;;;;;16.89;48.87;100336.54;125910;1106;102290;-77
2022/05/26 01:04:22;;;;;;;3.77;2.93;;;;;;;16.86;47.89;100342.73;125832;1105;101795;-79
2022/05/26 01:06:59;;;;;;;5.20;2.93;;;;;;;16.84;49.16;100338.25;125808;1105;101950;-79
2022/05/26 01:09:29;;;;;;;6.60;3.20;;;;;;;16.83;48.74;100332.07;125852;1105;102100;-78
2022/05/26 01:11:59;;;;;;;5.20;3.20;;;;;;;16.81;49.42;100322.32;126003;1105;102276;-79
2022/05/26 01:14:44;;;;;;;9.67;3.70;;;;;;;16.79;49.31;100314.36;125705;1105;104108;-78
2022/05/26 01:17:28;;;;;;;3.07;2.77;;;;;;;16.79;49.42;100310.84;125873;1105;104165;-78
2022/05/26 01:20:26;;;;;;;5.22;3.10;;;;;;;16.67;49.60;100301.02;125934;1103;102466;-78
2022/05/26 01:27:32;;;;;;;8.10;3.23;;;;;;;16.64;50.17;100298.34;126103;1102;102211;-78
2022/05/26 01:30:40;;;;;;;4.07;2.73;;;;;;;16.60;49.78;100294.80;126941;1099;102281;-78
2022/05/26 01:33:39;;;;;;;6.20;3.23;;;;;;;16.57;50.81;100273.59;127272;1099;104085;-78
2022/05/26 01:36:29;;;;;;;5.97;3.30;;;;;;;16.53;51.72;100283.28;127272;1099;101801;-78
2022/05/26 01:39:31;;;;;;;5.37;3.70;;;;;;;16.50;50.96;100277.95;127293;1099;102563;-78
2022/05/26 01:42:31;;;;;;;3.67;2.87;;;;;;;16.48;51.41;100282.33;127328;1099;101874;-79
2022/05/26 01:45:27;;;;;;;7.17;3.20;;;;;;;16.48;51.09;100273.52;127178;1099;107022;-78
2022/05/26 01:48:13;;;;;;;4.77;3.13;;;;;;;16.45;51.43;100263.77;127324;1099;102289;-78
2022/05/26 01:51:14;;;;;;;5.87;3.40;;;;;;;16.42;51.40;100276.98;127275;1099;102112;-77
2022/05/26 01:54:13;;;;;;;5.47;3.15;;;;;;;16.43;51.20;100284.06;127226;1099;105457;-77
2022/05/26 01:56:58;;;;;;;4.83;3.10;;;;;;;16.44;52.14;100277.00;127236;1099;102009;-77
2022/05/26 01:59:35;;;;;;;4.73;3.07;;;;;;;16.44;52.06;100271.70;127237;1099;102019;-78
2022/05/26 02:02:38;;;;;;;4.90;3.13;;;;;;;16.42;52.46;100270.81;127230;1098;101774;-78
2022/05/26 02:05:27;;;;;;;4.73;3.20;;;;;;;16.41;51.86;100269.94;127193;1099;105197;-78
2022/05/26 02:08:08;;;;;;;5.83;3.27;;;;;;;16.39;52.39;100255.77;126065;1102;104169;-77
2022/05/26 02:10:42;;;;;;;5.43;3.10;;;;;;;16.36;52.28;100261.05;126053;1102;104344;-77
2022/05/26 02:13:32;;;;;;;6.00;3.20;;;;;;;16.36;52.51;100261.05;126011;1102;102498;-76
2022/05/26 02:16:23;;;;;;;7.37;3.10;;;;;;;16.39;52.68;100262.84;125886;1102;102029;-76
2022/05/26 02:19:07;;;;;;;6.33;3.00;;;;;;;16.43;52.43;100262.88;126017;1102;110228;-76
2022/05/26 02:21:49;;;;;;;9.58;3.33;;;;;;;16.47;52.09;100263.78;125919;1102;102194;-76
2022/05/26 02:24:46;;;;;;;6.67;3.50;;;;;;;16.49;52.09;100267.35;125957;1102;104191;-76
2022/05/26 02:27:17;;;;;;;4.17;3.33;;;;;;;16.52;52.81;100251.48;126654;1100;102007;-77
2022/05/26 02:30:02;;;;;;;6.23;3.40;;;;;;;16.51;52.23;100247.92;127154;1099;104233;-77
2022/05/26 02:32:40;;;;;;;6.57;3.33;;;;;;;16.51;52.77;100261.17;127201;1099;101721;-78
2022/05/26 02:35:29;;;;;;;5.50;3.47;;;;;;;16.49;52.97;100262.93;127225;1099;101720;-77
2022/05/26 02:38:03;;;;;;;4.90;3.17;;;;;;;16.48;52.55;100254.97;126736;1099;104201;-77
2022/05/26 02:40:38;;;;;;;6.13;3.37;;;;;;;16.50;52.80;100243.52;127101;1099;104309;-79
2022/05/26 02:46:33;;;;;;;7.00;3.30;;;;;;;16.51;53.05;100226.73;127112;1099;102242;-77
2022/05/26 02:49:45;;;;;;;7.42;3.40;;;;;;;16.53;53.37;100230.30;127233;1098;102108;-76
2022/05/26 02:53:03;;;;;;;5.03;3.30;;;;;;;16.57;52.88;100238.28;127217;1099;102816;-76
2022/05/26 02:55:56;;;;;;;7.40;3.23;;;;;;;16.58;53.55;100238.28;127035;1099;101855;-77
2022/05/26 02:59:11;;;;;;;7.23;3.00;;;;;;;16.65;52.99;100258.63;127292;1098;101796;-76
2022/05/26 03:01:49;;;;;;;8.70;3.40;;;;;;;16.70;53.33;100282.50;126868;1099;102781;-76
2022/05/26 03:04:25;;;;;;;5.83;3.33;;;;;;;16.72;53.08;100307.27;127223;1099;102148;-76
2022/05/26 03:07:19;;;;;;;5.93;3.30;;;;;;;16.72;53.02;100312.56;127168;1099;101947;-77
2022/05/26 03:09:55;;;;;;;8.90;3.47;;;;;;;16.76;53.63;100293.14;127132;1099;101749;-78
2022/05/26 03:12:43;;;;;;;6.13;3.40;;;;;;;16.78;53.38;100280.81;127335;1098;102237;-76
2022/05/26 03:15:40;;;;;;;5.70;2.90;;;;;;;16.80;53.34;100271.10;127020;1099;102416;-78
2022/05/26 03:18:13;;;;;;;5.53;3.30;;;;;;;16.81;54.08;100306.42;127395;1099;101670;-78
2022/05/26 03:21:04;;;;;;;3.90;3.00;;;;;;;16.75;53.99;100303.73;127204;1099;104236;-77
2022/05/26 03:23:41;;;;;;;7.00;3.30;;;;;;;16.78;54.13;100304.66;126883;1099;102526;-76
2022/05/26 03:26:24;;;;;;;5.50;2.97;;;;;;;16.86;54.26;100305.63;126799;1099;102133;-77
2022/05/26 03:28:56;;;;;;;4.62;3.27;;;;;;;16.89;54.23;100304.73;126538;1099;102001;-77
2022/05/26 03:31:32;;;;;;;5.80;3.00;;;;;;;16.91;53.55;100291.50;126586;1099;104167;-76
2022/05/26 03:43:32;;;;;;;12.83;3.43;;;;;;;17.06;53.53;100296.89;126858;1099;104153;-78
2022/05/26 03:46:04;;;;;;;6.93;3.23;;;;;;;17.13;54.35;100293.41;127248;1098;102185;-77
2022/05/26 03:48:33;;;;;;;7.83;3.43;;;;;;;17.16;54.22;100303.16;126019;1099;104287;-77
2022/05/26 03:51:02;;;;;;;5.13;3.47;;;;;;;17.19;54.39;100293.45;126006;1099;102090;-77
2022/05/26 03:53:30;;;;;;;11.43;3.30;;;;;;;17.25;53.68;100300.56;125936;1102;102492;-78
2022/05/26 03:55:59;;;;;;;6.80;3.10;;;;;;;17.29;54.32;100297.02;125892;1099;104223;-77
2022/05/26 03:58:32;;;;;;;7.00;3.00;;;;;;;17.35;54.10;100293.53;125893;1100;103594;-77
2022/05/26 04:01:06;;;;;;;5.72;3.58;;;;;;;17.41;54.09;100299.73;125999;1099;102352;-77
2022/05/26 04:03:49;;;;;;;6.60;3.00;;;;;;;17.48;54.17;100297.11;125909;1100;103070;-79
2022/05/26 04:06:17;;;;;;;;;;;;;;;17.55;54.03;100317.49;126084;1100;102448;-77
2022/05/26 04:08:54;;;;;;;3.77;2.87;;;;;;;17.56;53.89;100298.93;126084;1099;102336;-79
2022/05/26 04:11:27;;;;;;;7.77;2.90;;;;;;;17.66;53.81;100320.19;126056;1102;102723;-78
2022/05/26 04:13:57;;;;;;;7.60;3.20;;;;;;;17.68;53.81;100321.95;126085;1102;102047;-77
2022/05/26 04:16:25;;;;;;;6.17;2.80;;;;;;;17.70;53.40;100321.95;125802;1102;102581;-77
2022/05/26 04:18:58;;;;;;;7.10;2.97;;;;;;;17.70;53.68;100330.83;125971;1103;102266;-78
2022/05/26 04:22:15;;;;;;;7.93;3.03;;;;;;;17.70;53.70;100337.88;125857;1100;102487;-76
2022/05/26 04:24:34;;;;;;;8.43;2.97;;;;;;;17.74;53.89;100343.20;125980;1102;104278;-78
2022/05/26 04:27:06;;;;;;;6.50;2.97;;;;;;;17.79;53.53;100345.87;125915;1102;102088;-78
2022/05/26 04:29:42;;;;;;;12.37;2.90;;;;;;;17.82;53.54;100348.54;125890;1102;102225;-77
2022/05/26 04:32:14;;;;;;;16.40;3.37;;;;;;;17.85;53.85;100360.95;125899;1102;102254;-77
2022/05/26 04:34:48;;;;;;;9.03;2.93;;;;;;;17.88;53.32;100358.30;125918;1102;104118;-76
2022/05/26 04:37:49;;;;;;;4.00;2.60;;;;;;;17.88;53.76;100364.52;125955;1102;102462;-78
2022/05/26 04:40:43;;;;;;;13.37;3.00;;;;;;;17.93;53.39;100378.69;125979;1102;102155;-77
2022/05/26 04:43:27;;;;;;;5.80;2.60;;;;;;;17.94;53.65;100375.16;125826;1102;104188;-76
2022/05/26 04:45:57;;;;;;;5.37;3.47;;;;;;;17.99;53.27;100383.14;126539;1100;104127;-77
2022/05/26 04:48:31;;;;;;;5.15;3.00;;;;;;;18.00;53.46;100370.75;126079;1099;103446;-78
2022/05/26 04:51:01;;;;;;;5.00;2.63;;;;;;;17.95;53.50;100373.38;126960;1099;102545;-77
2022/05/26 04:53:33;;;;;;;10.03;3.03;;;;;;;17.99;53.30;100372.52;126093;1099;102147;-79
2022/05/26 04:56:03;;;;;;;5.93;2.53;;;;;;;18.00;53.40;100376.96;126797;1098;104163;-75
2022/05/26 04:58:33;;;;;;;4.83;2.80;;;;;;;18.04;53.57;100368.11;126036;1099;102982;-77
2022/05/26 05:01:12;;;;;;;5.03;3.00;;;;;;;18.08;53.48;100355.75;126057;1102;102155;-75
2022/05/26 05:03:46;;;;;;;10.70;3.13;;;;;;;18.15;53.51;100352.20;125992;1103;103219;-76
2022/05/26 05:06:21;;;;;;;7.00;2.97;;;;;;;18.24;53.34;100338.95;125947;1101;104227;-75
2022/05/26 05:08:50;;;;;;;5.83;2.90;;;;;;;18.30;53.13;100336.30;125745;1102;104175;-76
2022/05/26 05:11:19;;;;;;;6.97;3.20;;;;;;;18.38;53.26;100322.16;125765;1106;102663;-76
2022/05/26 05:13:47;;;;;;;4.50;2.97;;;;;;;18.46;53.17;100329.22;125702;1103;102978;-76
2022/05/26 05:16:28;;;;;;;7.60;3.20;;;;;;;18.56;53.06;100322.17;125713;1105;102684;-75
2022/05/26 05:18:57;;;;;;;6.20;3.20;;;;;;;18.66;53.26;100329.23;125756;1105;102563;-75
2022/05/26 05:21:47;;;;;;;7.73;3.13;;;;;;;18.71;53.12;100331.02;125650;1105;103573;-76
2022/05/26 05:24:23;;;;;;;4.87;3.00;;;;;;;18.78;52.94;100332.80;125801;1105;102665;-76
2022/05/26 05:27:38;;;;;;;6.80;3.10;;;;;;;18.84;53.18;100324.81;125840;1106;102996;-76
2022/05/26 05:30:35;;;;;;;11.83;3.60;;;;;;;18.83;52.90;100331.01;125737;1105;104163;-76
2022/05/26 05:33:17;;;;;;;6.10;2.80;;;;;;;18.82;52.97;100334.55;125628;1102;103348;-76
2022/05/26 05:36:01;;;;;;;6.70;2.70;;;;;;;18.91;52.33;100328.37;125755;1105;102279;-76
2022/05/26 05:38:45;;;;;;;10.50;3.03;;;;;;;19.01;52.86;100339.00;125635;1105;102337;-76
2022/05/26 05:41:20;;;;;;;7.50;3.20;;;;;;;19.04;52.57;100331.02;125610;1105;103295;-78
2022/05/26 05:43:51;;;;;;;4.60;2.97;;;;;;;19.03;52.47;100334.56;125626;1105;104197;-78
2022/05/26 05:46:22;;;;;;;6.67;3.00;;;;;;;19.11;52.17;100334.55;125673;1105;103436;-77
2022/05/26 05:48:55;;;;;;;6.90;2.77;;;;;;;19.12;52.78;100333.67;125479;1105;103678;-78
2022/05/26 05:51:40;;;;;;;8.00;3.20;;;;;;;19.12;52.63;100335.42;125750;1105;102381;-78
2022/05/26 05:54:20;;;;;;;4.33;3.23;;;;;;;19.13;52.63;100339.86;125945;1106;104066;-79
2022/05/26 05:57:10;;;;;;;7.83;3.50;;;;;;;19.16;52.97;100337.20;125830;1105;102266;-78
2022/05/26 05:59:40;;;;;;;7.20;3.30;;;;;;;19.20;52.61;100347.83;125731;1105;104189;-77
2022/05/26 06:02:20;;;;;;;4.77;3.17;;;;;;;19.22;52.89;100350.48;125690;1105;103204;-78
2022/05/26 06:04:55;;;;;;;7.03;3.40;;;;;;;19.25;52.88;100358.45;125822;1105;103657;-79
2022/05/26 06:07:28;;;;;;;11.53;3.57;;;;;;;19.24;52.50;100359.33;125886;1105;104241;-79
2022/05/26 06:10:00;;;;;;;7.27;3.30;;;;;;;19.23;53.11;100357.59;125808;1105;102171;-80
2022/05/26 06:12:51;;;;;;;5.92;3.33;;;;;;;19.20;52.35;100357.59;125920;1106;103137;-80
2022/05/26 06:15:33;;;;;;;9.23;3.63;;;;;;;19.18;52.35;100360.25;125853;1105;102932;-81
2022/05/26 06:18:09;;;;;;;9.47;3.50;;;;;;;19.13;52.73;100366.45;125848;1102;103553;-79
2022/05/26 06:21:04;;;;;;;5.63;3.53;;;;;;;19.08;52.61;100360.27;125862;1102;102173;-79
2022/05/26 06:30:26;;;;;;;9.30;3.57;;;;;;;18.88;53.35;100363.81;126013;1102;102966;-81
2022/05/26 06:46:04;;;;;;;9.13;4.10;;;;;;;18.87;54.96;100375.36;125828;1102;101740;-79
2022/05/26 06:48:57;;;;;;;12.87;4.67;;;;;;;18.80;55.49;100373.55;125118;1102;104251;-79
2022/05/26 06:51:30;;;;;;;10.93;4.10;;;;;;;18.67;55.95;100368.22;125266;1102;102529;-78
2022/05/26 06:54:06;;;;;;;7.47;4.10;;;;;;;18.55;56.13;100378.84;125256;1106;104169;-78
2022/05/26 06:56:40;;;;;;;8.30;4.20;;;;;;;18.47;56.43;100378.83;125394;1101;104271;-78
2022/05/26 06:59:12;;;;;;;12.33;4.47;;;;;;;18.44;56.73;100372.64;125344;1103;103642;-78
2022/05/26 07:01:44;;;;;;;8.60;4.57;;;;;;;18.47;57.08;100377.95;125447;1102;104185;-79
2022/05/26 07:04:19;;;;;;;15.13;4.83;;;;;;;18.43;57.34;100382.39;125404;1102;102219;-78
2022/05/26 07:07:09;;;;;;;10.30;4.37;;;;;;;18.42;57.88;100382.38;125525;1102;102021;-77
2022/05/26 07:09:46;;;;;;;9.97;4.37;;;;;;;18.44;58.12;100381.48;125387;1102;104178;-79
2022/05/26 07:12:30;;;;;;;10.57;4.73;;;;;;;18.53;57.94;100377.97;125520;1102;102344;-79
2022/05/26 07:15:10;;;;;;;9.10;4.37;;;;;;;18.69;58.07;100374.41;125332;1103;102932;-79
2022/05/26 07:17:46;;;;;;;9.27;4.60;;;;;;;18.84;58.48;100367.35;125267;1105;102491;-78
2022/05/26 07:20:20;;;;;;;9.50;4.77;;;;;;;18.93;59.11;100366.48;125463;1102;103435;-80
2022/05/26 07:23:06;;;;;;;17.43;5.03;;;;;;;18.95;59.34;100362.94;125399;1102;103762;-78
2022/05/26 07:25:47;;;;;;;10.73;5.10;;;;;;;18.96;59.40;100370.01;125431;1102;102272;-78
2022/05/26 07:28:28;;;;;;;11.47;4.83;;;;;;;18.96;60.09;100375.33;125518;1102;104314;-78
2022/05/26 07:31:01;;;;;;;12.30;4.47;;;;;;;18.96;60.21;100383.30;125391;1106;105070;-78
2022/05/26 07:33:37;;;;;;;13.20;4.90;;;;;;;18.92;60.52;100391.31;125543;1102;104293;-78
2022/05/26 07:42:17;;;;;;;10.60;5.20;;;;;;;18.75;61.53;100423.17;124760;1102;102964;-79
2022/05/26 07:45:09;;;;;;;13.30;5.20;;;;;;;18.75;61.52;100417.85;125386;1103;102560;-78
2022/05/26 07:48:08;;;;;;;;;;;;;;;;;;;;;
2022/05/26 07:51:24;;;;;;;11.77;4.90;;;;;;;18.88;62.11;100419.64;125538;1105;102811;-79
2022/05/26 07:54:43;;;;;;;12.00;5.30;;;;;;;18.83;61.71;100437.34;125531;1106;102354;-80
2022/05/26 07:57:58;;;;;;;9.40;5.10;;;;;;;18.80;62.06;100438.21;125660;1105;104185;-80
2022/05/26 08:00:52;;;;;;;10.57;4.77;;;;;;;18.83;62.05;100437.34;125489;1105;102977;-78
2022/05/26 08:04:06;;;;;;;13.77;5.17;;;;;;;18.88;61.82;100448.02;125421;1109;103238;-80
2022/05/26 08:07:11;;;;;;;14.85;5.22;;;;;;;19.00;61.61;100445.36;125350;1106;102467;-80
2022/05/26 08:10:23;;;;;;;10.10;4.87;;;;;;;19.20;62.23;100434.73;125264;1106;102565;-78
2022/05/26 08:13:11;;;;;;;14.40;5.03;;;;;;;19.40;62.04;100429.38;125204;1109;110309;-80
2022/05/26 08:16:05;;;;;;;6.83;4.77;;;;;;;19.79;62.25;100443.52;125426;1108;102861;-79
2022/05/26 08:19:11;;;;;;;12.23;4.58;;;;;;;20.20;61.34;100439.79;125324;1105;103499;-79
2022/05/26 08:21:58;;;;;;;7.10;3.93;;;;;;;20.37;61.20;100445.03;125403;1106;102893;-78
2022/05/26 08:25:00;;;;;;;5.67;3.67;;;;;;;20.36;60.96;100448.58;125166;1108;102220;-79
2022/05/26 08:27:41;;;;;;;5.20;3.63;;;;;;;20.29;59.50;100473.51;125384;1108;102839;-79
2022/05/26 08:30:52;;;;;;;6.70;4.37;;;;;;;20.13;59.68;100469.12;125265;1105;102415;-77
2022/05/26 08:33:31;;;;;;;5.87;3.60;;;;;;;20.06;60.56;100474.48;125029;1109;117751;-78
2022/05/26 08:36:31;;;;;;;;;;;;;;;;;;;;;
2022/05/26 08:39:32;;;;;;;7.67;4.13;;;;;;;19.88;61.16;100475.44;125141;1109;102651;-80
2022/05/26 08:42:18;;;;;;;7.07;4.40;;;;;;;19.84;60.34;100491.43;124988;1106;102711;-78
2022/05/26 08:45:04;;;;;;;9.17;4.40;;;;;;;19.89;60.49;100497.62;125145;1109;103602;-80
2022/05/26 08:51:25;;;;;;;9.83;4.17;;;;;;;20.62;59.43;100495.55;125238;1105;103508;-80
2022/05/26 08:54:12;;;;;;;5.37;3.80;;;;;;;20.78;58.83;100502.57;125371;1103;104217;-80
2022/05/26 08:56:59;;;;;;;5.63;3.70;;;;;;;20.75;58.81;100507.05;125552;1105;102400;-79
2022/05/26 08:59:51;;;;;;;7.77;3.70;;;;;;;20.75;58.89;100512.38;125627;1107;102287;-82
2022/05/26 09:06:30;;;;;;;6.80;3.27;;;;;;;20.87;56.94;100522.09;125685;1105;103022;-82
2022/05/26 09:15:31;;;;;;;5.00;2.67;;;;;;;21.26;54.47;100534.25;125502;1105;102020;-81
2022/05/26 09:18:19;;;;;;;7.77;2.70;;;;;;;21.42;55.01;100531.47;125485;1105;103414;-78
2022/05/26 09:24:48;;;;;;;9.53;2.63;;;;;;;21.71;54.98;100537.45;125285;1106;104553;-79
2022/05/26 09:27:42;;;;;;;5.53;2.53;;;;;;;21.79;53.26;100540.05;125506;1105;103226;-81
2022/05/26 09:30:44;;;;;;;5.87;2.40;;;;;;;21.80;53.34;100523.14;125587;1105;102818;-78
2022/05/26 09:33:31;;;;;;;3.17;2.47;;;;;;;21.89;52.97;100544.41;125639;1104;103166;-81
2022/05/26 09:36:29;;;;;;;4.63;2.37;;;;;;;22.08;53.19;100549.56;125491;1105;104386;-80
2022/05/26 09:39:18;;;;;;;3.33;2.17;;;;;;;22.37;51.78;100543.02;125551;1103;104165;-79
2022/05/26 09:42:22;;;;;;;5.13;2.37;;;;;;;22.59;52.45;100541.86;125471;1105;102387;-78
2022/05/26 09:45:07;;;;;;;;;;;;;;;22.79;51.06;100548.70;125744;1102;102383;-79
2022/05/26 09:48:15;;;;;;;3.37;2.40;;;;;;;22.75;50.38;100558.57;125854;1102;102467;-79
2022/05/26 09:51:39;;;;;;;4.30;2.50;;;;;;;22.72;50.31;100552.36;125963;1102;102228;-80
2022/05/26 09:58:29;;;;;;;6.17;2.57;;;;;;;22.85;50.54;100563.80;125860;1102;102769;-80
2022/05/26 10:01:07;;;;;;;8.03;2.90;;;;;;;22.92;50.37;100554.75;125845;1103;103376;-82
2022/05/26 10:06:56;;;;;;;5.73;2.30;;;;;;;22.97;49.84;100547.57;125795;1102;103363;-79
2022/05/26 10:09:44;;;;;;;2.60;2.40;;;;;;;23.10;49.84;100549.17;125800;1102;102285;-78
2022/05/26 10:12:44;;;;;;;3.97;2.40;;;;;;;23.29;49.69;100559.59;125172;1102;104217;-80
2022/05/26 10:15:35;;;;;;;6.40;2.70;;;;;;;23.42;49.21;100546.88;125633;1102;103228;-80
2022/05/26 10:18:54;;;;;;;8.00;2.47;;;;;;;23.56;47.78;100552.91;125729;1105;103162;-80
2022/05/26 10:21:51;;;;;;;5.80;2.00;;;;;;;23.63;47.49;100559.91;125808;1102;104290;-81
2022/05/26 10:25:01;;;;;;;2.40;1.60;;;;;;;23.62;47.17;100541.19;125715;1102;104193;-79
2022/05/26 10:27:57;;;;;;;6.03;1.97;;;;;;;23.63;46.34;100543.84;125910;1102;108319;-81
2022/05/26 10:30:45;;;;;;;4.77;2.07;;;;;;;23.63;45.97;100534.94;125773;1102;103016;-80
2022/05/26 10:34:13;;;;;;;;;;;;;;;;;;;;;
2022/05/26 10:37:06;;;;;;;3.93;1.90;;;;;;;23.63;44.92;100538.48;125931;1102;102167;-80
2022/05/26 10:40:00;;;;;;;2.05;1.85;;;;;;;23.48;44.83;100538.75;125857;1102;103076;-79
2022/05/26 10:42:47;;;;;;;2.90;1.83;;;;;;;23.39;44.45;100539.81;125784;1102;104172;-81
2022/05/26 10:45:30;;;;;;;2.97;2.20;;;;;;;23.31;44.67;100539.02;125875;1099;102255;-80
2022/05/26 10:48:09;;;;;;;1.92;1.60;;;;;;;23.27;44.89;100548.91;126307;1099;118363;-80
2022/05/26 10:51:05;;;;;;;2.50;1.77;;;;;;;23.17;44.91;100539.27;126455;1099;104676;-80
2022/05/26 10:53:48;;;;;;;4.67;1.83;;;;;;;23.17;45.18;100536.59;126494;1099;102465;-79
2022/05/26 10:56:42;;;;;;;1.80;1.70;;;;;;;23.27;44.76;100529.30;126443;1099;102663;-80
2022/05/26 10:59:23;;;;;;;8.30;1.97;;;;;;;23.37;44.49;100535.37;126244;1099;103823;-81
2022/05/26 11:02:10;;;;;;;3.87;2.03;;;;;;;23.37;44.34;100538.05;126399;1099;104412;-81
2022/05/26 11:05:00;;;;;;;6.00;2.10;;;;;;;23.49;44.02;100525.33;125814;1099;102849;-81
2022/05/26 11:07:55;;;;;;;2.90;2.10;;;;;;;23.69;44.13;100524.11;125820;1102;103654;-80
2022/05/26 11:10:54;;;;;;;8.80;1.90;;;;;;;23.95;43.86;100520.08;125808;1099;102573;-79
2022/05/26 11:13:43;;;;;;;4.90;2.00;;;;;;;24.09;43.25;100519.81;125938;1099;103988;-79
2022/05/26 11:20:01;;;;;;;3.77;1.73;;;;;;;24.38;42.63;100520.09;125691;1101;108421;-79
2022/05/26 11:22:55;;;;;;;6.77;2.07;;;;;;;24.45;41.85;100528.01;125440;1102;104230;-79
2022/05/26 11:26:14;;;;;;;;;;;;;;;;;;;;;
2022/05/26 11:29:10;;;;;;;3.10;1.90;;;;;;;24.49;41.38;100525.23;125668;1102;102454;-79
2022/05/26 11:38:05;;;;;;;5.53;1.90;;;;;;;24.27;40.71;100527.48;125521;1102;104220;-81
2022/05/26 11:41:07;;;;;;;3.30;1.80;;;;;;;24.32;40.05;100517.53;125825;1099;104105;-81
2022/05/26 11:44:26;;;;;;;4.03;2.13;;;;;;;24.51;39.47;100519.83;125728;1099;102231;-80
2022/05/26 11:47:52;;;;;;;8.03;2.20;;;;;;;24.65;39.04;100523.16;125589;1099;104276;-80
2022/05/26 11:50:52;;;;;;;2.33;2.00;;;;;;;24.53;39.18;100516.21;125532;1099;106746;-80
2022/05/26 11:53:48;;;;;;;2.80;2.13;;;;;;;24.62;39.05;100514.27;125739;1099;102967;-81
2022/05/26 11:56:50;;;;;;;3.40;1.90;;;;;;;24.66;38.39;100513.30;125734;1099;102737;-81
2022/05/26 11:59:54;;;;;;;6.30;2.00;;;;;;;24.69;38.72;100511.41;125582;1102;102427;-80
2022/05/26 12:02:35;;;;;;;4.53;2.20;;;;;;;24.80;38.83;100504.94;125678;1102;103040;-80
2022/05/26 12:05:54;;;;;;;6.23;2.30;;;;;;;24.68;37.62;100515.03;125175;1102;103999;-79
2022/05/26 12:08:39;;;;;;;2.93;2.30;;;;;;;24.47;37.94;100516.34;125302;1105;102604;-79
2022/05/26 12:11:17;;;;;;;2.87;2.00;;;;;;;24.49;38.18;100502.90;124440;1106;111966;-78
2022/05/26 12:14:03;;;;;;;2.40;1.97;;;;;;;24.52;38.84;100503.70;124472;1108;102847;-79
2022/05/26 12:16:38;;;;;;;3.33;2.17;;;;;;;24.54;38.29;100499.22;125156;1105;104428;-80
2022/05/26 12:19:34;;;;;;;3.20;2.10;;;;;;;24.60;37.74;100490.16;125207;1106;103304;-79
2022/05/26 12:26:05;;;;;;;4.40;2.10;;;;;;;24.51;36.98;100496.59;125258;1105;102251;-80
2022/05/26 12:28:38;;;;;;;3.13;2.17;;;;;;;24.45;36.94;100495.83;125145;1105;103360;-80
2022/05/26 12:31:53;;;;;;;2.80;1.97;;;;;;;24.54;37.26;100487.58;125250;1105;104851;-80
2022/05/26 12:35:16;;;;;;;4.07;2.20;;;;;;;24.62;36.96;100498.17;125288;1105;102545;-80
2022/05/26 12:38:18;;;;;;;6.40;1.80;;;;;;;24.57;35.66;100500.95;125989;1105;102815;-80
2022/05/26 12:41:18;;;;;;;5.50;2.60;;;;;;;24.48;36.36;100501.13;125933;1102;102647;-79
2022/05/26 12:44:11;;;;;;;4.03;2.30;;;;;;;24.40;36.45;100499.52;126154;1102;103077;-78
2022/05/26 12:46:58;;;;;;;5.73;2.53;;;;;;;24.49;36.29;100494.86;125766;1102;104074;-79
2022/05/26 12:50:02;;;;;;;5.07;2.53;;;;;;;24.53;36.24;100481.34;125617;1101;102820;-80
2022/05/26 12:52:42;;;;;;;4.20;2.57;;;;;;;24.56;35.37;100500.05;125680;1102;102877;-79
2022/05/26 12:55:25;;;;;;;5.47;2.40;;;;;;;24.58;35.57;100505.41;125676;1102;104326;-78
2022/05/26 12:58:14;;;;;;;3.57;2.13;;;;;;;24.64;35.64;100494.55;125744;1102;104176;-79
2022/05/26 13:00:59;;;;;;;5.93;2.30;;;;;;;24.80;35.66;100500.44;125595;1102;103015;-79
2022/05/26 13:03:37;;;;;;;6.80;2.30;;;;;;;24.85;34.86;100489.59;125687;1099;103332;-79
2022/05/26 13:06:44;;;;;;;3.30;2.50;;;;;;;24.90;34.96;100493.95;126119;1099;104061;-79
2022/05/26 13:09:30;;;;;;;6.43;2.67;;;;;;;24.94;35.04;100494.75;125660;1099;103029;-78
2022/05/26 13:12:09;;;;;;;4.83;2.50;;;;;;;25.01;35.19;100491.02;126208;1099;102934;-79
2022/05/26 13:14:52;;;;;;;5.57;2.70;;;;;;;25.05;35.11;100495.36;125792;1099;103082;-79
2022/05/26 13:17:26;;;;;;;6.53;2.60;;;;;;;25.02;35.10;100497.25;125429;1099;102744;-77
2022/05/26 13:23:33;;;;;;;6.67;2.60;;;;;;;24.78;34.75;100498.70;125639;1099;111576;-78
2022/05/26 13:30:04;;;;;;;;;;;;;;;;;;;;;
2022/05/26 13:33:11;;;;;;;4.63;2.73;;;;;;;24.53;34.50;100497.44;125735;1099;102693;-80
2022/05/26 13:35:59;;;;;;;6.47;3.17;;;;;;;24.58;34.85;100492.00;126266;1098;104172;-79
2022/05/26 13:39:08;;;;;;;4.70;3.00;;;;;;;24.62;34.84;100492.81;125681;1099;102498;-80
2022/05/26 13:42:18;;;;;;;3.73;3.17;;;;;;;24.58;34.68;100495.56;125790;1102;104124;-79
2022/05/26 13:45:03;;;;;;;5.17;3.10;;;;;;;24.58;35.01;100486.64;125528;1099;103199;-79
2022/05/26 13:47:41;;;;;;;6.77;3.00;;;;;;;24.53;34.34;100500.12;126437;1099;103367;-79
2022/05/26 13:50:32;;;;;;;4.23;3.20;;;;;;;24.41;35.08;100490.53;126180;1099;102832;-79
2022/05/26 13:53:23;;;;;;;4.87;3.20;;;;;;;24.45;34.67;100501.19;125531;1099;104175;-80
2022/05/26 13:56:05;;;;;;;5.40;2.70;;;;;;;24.50;34.42;100499.31;125611;1099;102343;-81
2022/05/26 13:58:48;;;;;;;6.03;3.20;;;;;;;24.45;34.10;100512.82;125582;1102;104167;-80
2022/05/26 14:01:27;;;;;;;5.37;2.90;;;;;;;24.31;34.01;100498.80;125571;1099;104572;-80
2022/05/26 14:04:07;;;;;;;3.33;2.70;;;;;;;24.26;34.32;100501.58;124921;1102;103405;-80
2022/05/26 14:06:47;;;;;;;8.10;3.37;;;;;;;24.32;34.36;100497.89;124726;1102;104396;-79
2022/05/26 14:09:34;;;;;;;3.97;2.90;;;;;;;24.32;34.32;100496.09;124836;1102;102725;-79
2022/05/26 14:12:30;;;;;;;8.17;3.10;;;;;;;24.37;34.51;100498.67;124976;1102;104249;-81
2022/05/26 14:15:09;;;;;;;6.20;2.70;;;;;;;24.36;34.18;100500.48;124919;1102;104926;-81